sensor_id;sensor_type;location;lat;lon;timestamp;temperature;humidity
9095;DHT22;4583;49.796;9.902;2023-09-18T00:01:41;21.10;97.80
9095;DHT22;4583;49.796;9.902;2023-09-18T00:11:43;21.10;98.20
9095;DHT22;4583;49.796;9.902;2023-09-18T00:21:45;21.10;98.30
9095;DHT22;4583;49.796;9.902;2023-09-18T00:31:47;21.00;98.40
9095;DHT22;4583;49.796;9.902;2023-09-18T00:41:48;21.00;98.80
9095;DHT22;4583;49.796;9.902;2023-09-18T00:51:55;20.80;98.90
9095;DHT22;4583;49.796;9.902;2023-09-18T01:01:57;20.80;99.10
9095;DHT22;4583;49.796;9.902;2023-09-18T01:12:13;20.70;99.30
9095;DHT22;4583;49.796;9.902;2023-09-18T01:22:18;20.70;99.40
9095;DHT22;4583;49.796;9.902;2023-09-18T01:32:23;20.70;99.70
9095;DHT22;4583;49.796;9.902;2023-09-18T01:42:27;20.50;99.90
9095;DHT22;4583;49.796;9.902;2023-09-18T01:52:29;20.50;99.90
9095;DHT22;4583;49.796;9.902;2023-09-18T02:02:31;20.40;99.90
9095;DHT22;4583;49.796;9.902;2023-09-18T02:12:53;20.30;99.90
9095;DHT22;4583;49.796;9.902;2023-09-18T02:22:54;20.10;99.90
9095;DHT22;4583;49.796;9.902;2023-09-18T02:32:57;20.10;99.90
9095;DHT22;4583;49.796;9.902;2023-09-18T02:42:59;20.10;99.90
9095;DHT22;4583;49.796;9.902;2023-09-18T02:53:01;20.20;99.90
9095;DHT22;4583;49.796;9.902;2023-09-18T03:03:03;20.10;99.90
9095;DHT22;4583;49.796;9.902;2023-09-18T03:13:05;20.10;99.90
9095;DHT22;4583;49.796;9.902;2023-09-18T03:23:07;20.10;99.90
9095;DHT22;4583;49.796;9.902;2023-09-18T03:33:09;20.20;99.90
9095;DHT22;4583;49.796;9.902;2023-09-18T03:43:11;20.20;99.90
9095;DHT22;4583;49.796;9.902;2023-09-18T03:53:14;20.40;99.90
9095;DHT22;4583;49.796;9.902;2023-09-18T04:03:16;20.40;99.90
9095;DHT22;4583;49.796;9.902;2023-09-18T04:13:18;20.50;99.90
9095;DHT22;4583;49.796;9.902;2023-09-18T04:23:22;20.40;99.90
9095;DHT22;4583;49.796;9.902;2023-09-18T04:33:24;20.40;99.90
9095;DHT22;4583;49.796;9.902;2023-09-18T04:43:27;20.40;99.90
9095;DHT22;4583;49.796;9.902;2023-09-18T04:53:32;20.40;99.90
9095;DHT22;4583;49.796;9.902;2023-09-18T05:03:34;20.30;99.90
9095;DHT22;4583;49.796;9.902;2023-09-18T05:13:37;20.40;99.90
9095;DHT22;4583;49.796;9.902;2023-09-18T05:23:38;20.40;99.90
9095;DHT22;4583;49.796;9.902;2023-09-18T05:33:40;20.40;99.90
9095;DHT22;4583;49.796;9.902;2023-09-18T05:43:42;20.60;99.90
9095;DHT22;4583;49.796;9.902;2023-09-18T05:53:44;20.50;99.90
9095;DHT22;4583;49.796;9.902;2023-09-18T06:03:45;20.60;99.90
9095;DHT22;4583;49.796;9.902;2023-09-18T06:13:47;20.60;99.90
9095;DHT22;4583;49.796;9.902;2023-09-18T06:23:49;20.70;99.90
9095;DHT22;4583;49.796;9.902;2023-09-18T06:33:51;20.80;99.90
9095;DHT22;4583;49.796;9.902;2023-09-18T06:43:53;20.90;99.90
9095;DHT22;4583;49.796;9.902;2023-09-18T06:53:54;21.00;99.90
9095;DHT22;4583;49.796;9.902;2023-09-18T07:03:59;21.10;99.90
9095;DHT22;4583;49.796;9.902;2023-09-18T07:14:03;21.20;99.90
9095;DHT22;4583;49.796;9.902;2023-09-18T16:47:22;21.30;99.90
9095;DHT22;4583;49.796;9.902;2023-09-18T16:57:26;22.90;95.40
9095;DHT22;4583;49.796;9.902;2023-09-18T17:07:28;22.70;95.40
9095;DHT22;4583;49.796;9.902;2023-09-18T17:17:33;22.50;95.50
9095;DHT22;4583;49.796;9.902;2023-09-18T17:47:39;22.30;95.90
9095;DHT22;4583;49.796;9.902;2023-09-18T17:57:41;21.90;96.80
9095;DHT22;4583;49.796;9.902;2023-09-18T18:07:43;21.70;97.20
9095;DHT22;4583;49.796;9.902;2023-09-18T18:17:45;21.50;97.80
9095;DHT22;4583;49.796;9.902;2023-09-18T18:27:47;21.40;98.30
9095;DHT22;4583;49.796;9.902;2023-09-18T18:37:49;21.30;98.90
9095;DHT22;4583;49.796;9.902;2023-09-18T18:47:51;21.20;99.20
9095;DHT22;4583;49.796;9.902;2023-09-18T18:57:54;21.20;99.30
9095;DHT22;4583;49.796;9.902;2023-09-18T19:07:57;21.10;99.20
9095;DHT22;4583;49.796;9.902;2023-09-18T19:17:58;21.10;99.70
9095;DHT22;4583;49.796;9.902;2023-09-18T19:28:00;21.10;99.90
9095;DHT22;4583;49.796;9.902;2023-09-18T19:38:03;21.20;99.90
9095;DHT22;4583;49.796;9.902;2023-09-18T19:48:05;21.20;99.70
9095;DHT22;4583;49.796;9.902;2023-09-18T19:58:07;21.20;99.90
9095;DHT22;4583;49.796;9.902;2023-09-18T20:08:09;21.10;99.90
9095;DHT22;4583;49.796;9.902;2023-09-18T20:18:11;21.00;99.90
9095;DHT22;4583;49.796;9.902;2023-09-18T20:28:14;20.80;99.30
9095;DHT22;4583;49.796;9.902;2023-09-18T20:38:16;20.70;98.70
9095;DHT22;4583;49.796;9.902;2023-09-18T20:48:18;20.60;98.10
9095;DHT22;4583;49.796;9.902;2023-09-18T20:58:20;20.60;97.30
9095;DHT22;4583;49.796;9.902;2023-09-18T21:08:22;20.50;96.60
9095;DHT22;4583;49.796;9.902;2023-09-18T21:18:24;20.40;96.10
9095;DHT22;4583;49.796;9.902;2023-09-18T21:28:27;20.30;95.90
9095;DHT22;4583;49.796;9.902;2023-09-18T21:38:29;20.10;95.90
9095;DHT22;4583;49.796;9.902;2023-09-18T21:48:31;19.90;96.10
9095;DHT22;4583;49.796;9.902;2023-09-18T21:58:33;19.90;96.30
9095;DHT22;4583;49.796;9.902;2023-09-18T22:08:35;19.90;96.50
9095;DHT22;4583;49.796;9.902;2023-09-18T22:18:40;19.90;96.60
9095;DHT22;4583;49.796;9.902;2023-09-18T22:28:43;19.80;96.80
9095;DHT22;4583;49.796;9.902;2023-09-18T22:59:27;19.70;97.00
9095;DHT22;4583;49.796;9.902;2023-09-18T23:09:31;19.70;97.00
9095;DHT22;4583;49.796;9.902;2023-09-18T23:19:33;19.60;97.10
9095;DHT22;4583;49.796;9.902;2023-09-18T23:29:40;19.60;97.20
9095;DHT22;4583;49.796;9.902;2023-09-18T23:39:43;19.60;97.30
9095;DHT22;4583;49.796;9.902;2023-09-18T23:49:46;19.50;97.30
9095;DHT22;4583;49.796;9.902;2023-09-18T23:59:48;19.50;97.50
